Terminal Aerodrome Forecast
Issued by NWS Topeka, KS

Home | Current Version | Previous Version | Graphics & Text | Print | Product List | Glossary On
Versions: 1 2 3 4 5 6 7 8 9 10 11 12 13 14 15 16 17
000
FTUS43 KTOP 202000 AAA
TAFTOP
TAF AMD
KTOP 202031Z 2021/2118 23008KT P6SM VCTS BKN040CB
      TEMPO 2022/2024 27007G30KT 4SM TSRA
     FM210200 32006KT P6SM FEW050=

USA.gov is the U.S. government's official web portal to all federal, state and local government web resources and services.